Time;durP1;ratioP1;P1;durP2;ratioP2;P2;SDS_P1;SDS_P2;PMS_P1;PMS_P2;Temp;Humidity;BMP_temperature;BMP_pressure;BME280_temperature;BME280_humidity;BME280_pressure;Samples;Min_cycle;Max_cycle;Signal;HPM_P1;HPM_P2
2023/07/25 00:00:39;;;;;;;2.63;1.83;;;16.80;99.90;;;;;;4981527;28;20651;-74
2023/07/25 00:03:06;;;;;;;1.50;1.40;;;16.70;99.90;;;;;;4976757;28;20633;-74
2023/07/25 00:05:33;;;;;;;2.30;1.77;;;16.80;99.90;;;;;;4974603;28;20653;-74
2023/07/25 00:08:01;;;;;;;2.27;1.83;;;16.70;99.90;;;;;;4983676;28;20625;-74
2023/07/25 00:10:28;;;;;;;2.00;1.60;;;16.60;99.90;;;;;;4978467;28;20670;-74
2023/07/25 00:12:55;;;;;;;2.00;1.90;;;16.70;99.90;;;;;;4984146;28;20974;-74
2023/07/25 00:15:22;;;;;;;1.77;1.40;;;16.70;99.90;;;;;;4975490;28;21187;-75
2023/07/25 00:17:48;;;;;;;2.83;1.67;;;16.80;99.90;;;;;;4977441;28;21165;-74
2023/07/25 00:20:15;;;;;;;2.20;1.57;;;16.60;99.90;;;;;;4978557;28;20622;-75
2023/07/25 00:22:42;;;;;;;2.87;2.17;;;16.70;99.90;;;;;;4982144;28;20956;-75
2023/07/25 00:25:11;;;;;;;2.13;1.93;;;16.70;99.90;;;;;;4981489;28;20637;-74
2023/07/25 00:27:38;;;;;;;2.13;1.93;;;16.70;99.90;;;;;;4978928;28;21483;-74
2023/07/25 00:30:06;;;;;;;2.33;2.13;;;16.70;99.90;;;;;;4977530;28;20665;-75
2023/07/25 00:32:34;;;;;;;1.60;1.50;;;16.70;99.90;;;;;;4981308;28;20630;-75
2023/07/25 00:35:01;;;;;;;1.40;1.30;;;16.70;99.90;;;;;;4975601;28;20681;-74
2023/07/25 00:37:29;;;;;;;4.33;2.47;;;16.60;99.90;;;;;;4981327;28;20648;-74
2023/07/25 00:39:56;;;;;;;1.90;1.80;;;16.50;99.90;;;;;;4976903;28;20622;-74
2023/07/25 00:42:24;;;;;;;3.50;2.73;;;16.60;99.90;;;;;;4977518;28;20991;-74
2023/07/25 00:44:51;;;;;;;3.17;2.10;;;16.70;99.90;;;;;;4980560;28;20638;-75
2023/07/25 00:47:19;;;;;;;2.93;1.87;;;16.70;99.90;;;;;;4976041;28;20654;-74
2023/07/25 00:49:47;;;;;;;2.47;1.67;;;16.60;99.90;;;;;;4982896;28;20661;-74
2023/07/25 00:52:13;;;;;;;2.60;2.40;;;16.40;99.90;;;;;;4977984;28;20654;-74
2023/07/25 00:54:46;;;;;;;1.87;1.60;;;16.40;99.90;;;;;;4979994;28;20643;-74
2023/07/25 00:57:13;;;;;;;2.40;2.20;;;16.30;99.90;;;;;;4976236;28;20645;-75
2023/07/25 00:59:41;;;;;;;4.93;3.20;;;16.30;99.90;;;;;;4979287;28;20629;-74
2023/07/25 01:02:09;;;;;;;2.17;2.00;;;16.30;99.90;;;;;;4980562;28;20657;-74
2023/07/25 01:04:37;;;;;;;2.47;2.27;;;16.20;99.90;;;;;;4977772;28;20649;-73
2023/07/25 01:07:06;;;;;;;3.20;2.40;;;16.20;99.90;;;;;;4976511;28;20665;-74
2023/07/25 01:09:37;;;;;;;1.80;1.67;;;16.20;99.90;;;;;;4980159;28;20621;-74
2023/07/25 01:12:06;;;;;;;2.30;2.03;;;16.10;99.90;;;;;;4981640;28;20990;-74
2023/07/25 01:14:33;;;;;;;2.50;2.30;;;16.10;99.90;;;;;;4981578;28;20630;-74
2023/07/25 01:17:07;;;;;;;2.33;1.77;;;16.10;99.90;;;;;;4980073;28;21237;-74
2023/07/25 01:19:37;;;;;;;2.47;2.27;;;16.10;99.90;;;;;;4975410;28;20637;-74
2023/07/25 01:22:04;;;;;;;1.50;1.40;;;16.00;99.90;;;;;;4980711;28;20652;-74
2023/07/25 01:24:33;;;;;;;1.83;1.70;;;16.00;99.90;;;;;;4977997;28;21206;-74
2023/07/25 01:27:01;;;;;;;2.50;1.63;;;16.00;99.90;;;;;;4976804;28;20647;-74
2023/07/25 01:29:29;;;;;;;1.77;1.67;;;16.00;99.90;;;;;;4977680;28;20627;-74
2023/07/25 01:31:56;;;;;;;2.57;1.57;;;16.00;99.90;;;;;;4980750;28;20733;-74
2023/07/25 01:34:23;;;;;;;2.20;2.00;;;16.00;99.90;;;;;;4979934;28;20639;-74
2023/07/25 01:36:51;;;;;;;2.20;1.97;;;16.00;99.90;;;;;;4972912;28;21300;-74
2023/07/25 01:39:18;;;;;;;2.13;1.87;;;16.00;99.90;;;;;;4980303;28;20978;-74
2023/07/25 01:41:47;;;;;;;1.83;1.60;;;16.00;99.90;;;;;;4978060;28;20657;-74
2023/07/25 01:44:14;;;;;;;1.63;1.53;;;16.00;99.90;;;;;;4975210;28;20634;-74
2023/07/25 01:46:42;;;;;;;2.67;1.87;;;16.10;99.90;;;;;;4975435;28;20662;-74
2023/07/25 01:49:11;;;;;;;2.30;1.90;;;16.10;99.90;;;;;;4976559;28;20989;-74
2023/07/25 01:51:39;;;;;;;2.17;1.97;;;16.10;99.90;;;;;;4980399;28;20665;-74
2023/07/25 01:54:06;;;;;;;3.50;2.00;;;16.10;99.90;;;;;;4977066;28;20622;-74
2023/07/25 01:56:34;;;;;;;1.57;1.47;;;16.20;99.90;;;;;;4977008;28;21003;-74
2023/07/25 01:59:04;;;;;;;2.13;1.90;;;16.20;99.90;;;;;;4977290;28;20629;-74
2023/07/25 02:01:33;;;;;;;2.67;2.47;;;16.20;99.90;;;;;;4977694;28;20653;-74
2023/07/25 02:04:00;;;;;;;2.03;1.70;;;16.20;99.90;;;;;;4977521;28;21228;-74
2023/07/25 02:06:28;;;;;;;1.90;1.70;;;16.30;99.90;;;;;;4980685;28;20672;-74
2023/07/25 02:08:56;;;;;;;2.40;1.70;;;16.20;99.90;;;;;;4976326;28;20660;-74
2023/07/25 02:11:24;;;;;;;2.03;1.83;;;16.20;99.90;;;;;;4976291;28;20677;-74
2023/07/25 02:13:52;;;;;;;1.73;1.60;;;16.10;99.90;;;;;;4976709;28;20689;-74
2023/07/25 02:16:21;;;;;;;1.80;1.50;;;16.10;99.90;;;;;;4975323;28;21224;-74
2023/07/25 02:18:49;;;;;;;1.60;1.50;;;16.00;99.90;;;;;;4975302;28;20638;-74
2023/07/25 02:21:16;;;;;;;2.10;1.90;;;16.00;99.90;;;;;;4977489;28;20653;-74
2023/07/25 02:23:43;;;;;;;1.90;1.73;;;16.00;99.90;;;;;;4981673;28;20673;-74
2023/07/25 02:26:09;;;;;;;1.93;1.50;;;16.00;99.90;;;;;;4982959;28;20657;-74
2023/07/25 02:28:36;;;;;;;1.67;1.57;;;16.10;99.90;;;;;;4977409;28;20713;-74
2023/07/25 02:31:03;;;;;;;1.90;1.70;;;16.10;99.90;;;;;;4977128;28;21329;-74
2023/07/25 02:33:31;;;;;;;2.30;1.80;;;16.00;99.90;;;;;;4979361;28;20668;-74
2023/07/25 02:35:58;;;;;;;2.57;1.80;;;15.90;99.90;;;;;;4971494;28;20651;-73
2023/07/25 02:38:26;;;;;;;3.43;2.17;;;15.90;99.90;;;;;;4976704;28;20684;-74
2023/07/25 02:40:53;;;;;;;2.73;2.23;;;15.70;99.90;;;;;;4975287;28;20661;-74
2023/07/25 02:43:22;;;;;;;1.70;1.60;;;15.70;99.90;;;;;;4976114;28;20733;-74
2023/07/25 02:45:50;;;;;;;2.60;1.70;;;15.60;99.90;;;;;;4976975;28;20661;-74
2023/07/25 02:48:18;;;;;;;1.93;1.83;;;15.70;99.90;;;;;;4983836;28;20629;-74
2023/07/25 02:50:47;;;;;;;2.20;1.83;;;15.70;99.90;;;;;;4977561;28;20661;-74
2023/07/25 02:53:15;;;;;;;2.53;1.40;;;15.60;99.90;;;;;;4976400;28;20630;-74
2023/07/25 02:55:44;;;;;;;2.10;1.67;;;15.60;99.90;;;;;;4971853;28;21462;-74
2023/07/25 02:58:12;;;;;;;1.57;1.47;;;15.60;99.90;;;;;;4979319;28;20655;-74
2023/07/25 03:00:39;;;;;;;1.83;1.73;;;15.60;99.90;;;;;;4978564;28;21006;-74
2023/07/25 03:03:07;;;;;;;1.97;1.77;;;15.60;99.90;;;;;;4977838;28;20728;-74
2023/07/25 03:05:35;;;;;;;1.90;1.70;;;15.60;99.90;;;;;;4978902;28;20760;-74
2023/07/25 03:08:05;;;;;;;3.50;2.50;;;15.50;99.90;;;;;;4977629;28;20682;-74
2023/07/25 03:10:32;;;;;;;3.33;1.83;;;15.50;99.90;;;;;;4985601;28;20725;-75
2023/07/25 03:12:59;;;;;;;1.80;1.70;;;15.60;99.90;;;;;;4978110;28;20622;-74
2023/07/25 03:15:27;;;;;;;1.63;1.53;;;15.50;99.90;;;;;;4987760;28;20764;-74
2023/07/25 03:17:55;;;;;;;2.60;1.87;;;15.50;99.90;;;;;;4979211;28;20635;-73
2023/07/25 03:20:23;;;;;;;1.70;1.60;;;15.60;99.90;;;;;;4980080;28;21209;-74
2023/07/25 03:22:50;;;;;;;2.03;1.93;;;15.60;99.90;;;;;;4982583;28;20629;-74
2023/07/25 03:25:18;;;;;;;2.43;1.80;;;15.60;99.90;;;;;;4982635;28;20617;-74
2023/07/25 03:27:46;;;;;;;2.50;2.10;;;15.70;99.90;;;;;;4976822;28;20705;-74
2023/07/25 03:30:14;;;;;;;2.00;1.60;;;15.80;99.90;;;;;;4978708;28;20626;-74
2023/07/25 03:32:41;;;;;;;1.80;1.70;;;15.90;99.90;;;;;;4981872;28;21194;-74
2023/07/25 03:35:09;;;;;;;3.40;2.50;;;15.80;99.90;;;;;;4979884;28;20633;-74
2023/07/25 03:37:38;;;;;;;1.60;1.50;;;15.70;99.90;;;;;;4980266;28;20656;-74
2023/07/25 03:40:07;;;;;;;2.20;2.00;;;15.80;99.90;;;;;;4979046;28;20634;-74
2023/07/25 03:42:37;;;;;;;2.33;2.13;;;15.80;99.90;;;;;;4979808;28;21032;-74
2023/07/25 03:45:04;;;;;;;2.13;1.93;;;15.90;99.90;;;;;;4980882;28;21493;-74
2023/07/25 03:47:30;;;;;;;2.93;1.87;;;15.90;99.90;;;;;;4979176;28;20626;-74
2023/07/25 03:49:57;;;;;;;2.00;1.90;;;16.00;99.90;;;;;;4984814;28;20633;-74
2023/07/25 03:52:24;;;;;;;2.73;2.10;;;16.10;99.90;;;;;;4981935;28;21134;-74
2023/07/25 03:54:51;;;;;;;2.07;1.97;;;16.10;99.90;;;;;;4985283;28;20720;-74
2023/07/25 03:57:18;;;;;;;2.70;1.80;;;16.00;99.90;;;;;;4977234;28;20676;-74
2023/07/25 03:59:46;;;;;;;2.13;1.63;;;16.00;99.90;;;;;;4981303;28;20629;-74
2023/07/25 04:02:12;;;;;;;1.83;1.70;;;16.10;99.90;;;;;;4974976;28;20652;-74
2023/07/25 04:04:42;;;;;;;2.47;2.00;;;16.10;99.90;;;;;;4981874;28;20639;-75
2023/07/25 04:07:08;;;;;;;2.07;1.93;;;16.00;99.90;;;;;;4982249;28;20656;-74
2023/07/25 04:09:35;;;;;;;2.10;1.77;;;16.20;99.90;;;;;;4979743;28;20649;-74
2023/07/25 04:12:02;;;;;;;1.50;1.40;;;16.00;99.90;;;;;;4976738;28;20673;-74
2023/07/25 04:14:29;;;;;;;2.57;1.90;;;16.10;99.90;;;;;;4981550;28;20623;-74
2023/07/25 04:16:57;;;;;;;1.90;1.80;;;16.10;99.90;;;;;;4980165;28;20691;-73
2023/07/25 04:19:24;;;;;;;2.40;2.20;;;16.10;99.90;;;;;;4979167;28;20633;-73
2023/07/25 04:21:50;;;;;;;5.73;4.80;;;16.10;99.90;;;;;;4982048;28;20660;-73
2023/07/25 04:24:17;;;;;;;3.80;3.17;;;16.10;99.90;;;;;;4980736;28;20633;-73
2023/07/25 04:26:44;;;;;;;2.53;2.33;;;16.20;99.90;;;;;;4977459;28;20695;-73
2023/07/25 04:29:11;;;;;;;2.37;2.17;;;16.20;99.90;;;;;;4980839;28;20675;-74
2023/07/25 04:31:37;;;;;;;2.50;2.23;;;16.20;99.90;;;;;;4979068;28;20669;-74
2023/07/25 04:34:06;;;;;;;2.80;2.53;;;16.20;99.90;;;;;;4979454;28;20658;-73
2023/07/25 04:36:32;;;;;;;2.93;2.40;;;16.30;99.90;;;;;;4978834;28;20753;-73
2023/07/25 04:38:59;;;;;;;1.40;1.30;;;16.40;99.90;;;;;;4981269;28;20643;-73
2023/07/25 04:41:26;;;;;;;3.57;1.77;;;16.50;99.90;;;;;;4974385;28;20650;-73
2023/07/25 04:43:53;;;;;;;2.40;2.20;;;16.50;99.90;;;;;;4981447;28;20741;-73
2023/07/25 04:46:20;;;;;;;4.37;2.60;;;16.60;99.90;;;;;;4980130;28;20665;-73
2023/07/25 04:48:46;;;;;;;4.27;2.07;;;16.70;99.90;;;;;;4978125;28;20626;-73
2023/07/25 04:51:14;;;;;;;3.20;2.40;;;16.60;99.90;;;;;;4975733;28;20669;-74
2023/07/25 04:53:41;;;;;;;2.70;1.97;;;16.60;99.90;;;;;;4978098;28;20626;-73
2023/07/25 04:56:08;;;;;;;2.20;1.90;;;16.60;99.90;;;;;;4978148;28;20667;-75
2023/07/25 04:58:38;;;;;;;2.63;2.43;;;16.60;99.90;;;;;;4979883;28;20630;-74
2023/07/25 05:01:05;;;;;;;3.50;2.30;;;16.60;99.90;;;;;;4982580;28;20754;-74
2023/07/25 05:03:31;;;;;;;2.40;2.20;;;16.60;99.90;;;;;;4978094;28;20730;-73
2023/07/25 05:05:58;;;;;;;3.30;2.33;;;16.70;99.90;;;;;;4971067;28;20654;-73
2023/07/25 05:08:26;;;;;;;2.50;2.30;;;16.60;99.90;;;;;;4976862;28;20626;-72
2023/07/25 05:10:56;;;;;;;4.27;2.90;;;16.60;99.90;;;;;;4972610;28;20685;-72
2023/07/25 05:13:23;;;;;;;2.40;2.20;;;16.60;99.90;;;;;;4976843;28;20645;-73
2023/07/25 05:15:50;;;;;;;3.53;3.20;;;16.70;99.90;;;;;;4975602;28;21012;-73
2023/07/25 05:18:17;;;;;;;4.43;4.13;;;16.80;99.90;;;;;;4977756;28;20843;-73
2023/07/25 05:20:46;;;;;;;3.80;3.17;;;16.80;99.90;;;;;;4973356;28;20662;-72
2023/07/25 05:23:13;;;;;;;3.23;2.93;;;16.80;99.90;;;;;;4976262;28;20644;-72
2023/07/25 05:25:42;;;;;;;2.33;2.13;;;16.90;99.90;;;;;;4979437;28;20649;-73
2023/07/25 05:28:09;;;;;;;2.70;2.50;;;17.00;99.90;;;;;;4979774;28;20632;-72
2023/07/25 05:30:36;;;;;;;3.40;2.57;;;17.00;99.90;;;;;;4975295;28;20661;-72
2023/07/25 05:33:03;;;;;;;2.60;2.40;;;17.00;99.90;;;;;;4975738;28;21190;-72
2023/07/25 05:35:30;;;;;;;3.60;2.27;;;16.90;99.90;;;;;;4977156;28;20681;-72
2023/07/25 05:37:57;;;;;;;4.30;2.53;;;16.90;99.90;;;;;;4975055;28;20633;-72
2023/07/25 05:40:26;;;;;;;3.43;2.37;;;16.90;99.90;;;;;;4975825;28;20643;-71
2023/07/25 05:42:59;;;;;;;2.47;2.23;;;16.90;99.90;;;;;;4979122;28;20664;-72
2023/07/25 05:45:26;;;;;;;3.20;1.93;;;16.80;99.90;;;;;;4978706;28;21040;-72
2023/07/25 05:47:52;;;;;;;2.70;1.83;;;16.80;99.90;;;;;;4979990;28;20630;-72
2023/07/25 05:50:19;;;;;;;2.63;2.20;;;16.70;99.90;;;;;;4975280;28;20632;-72
2023/07/25 05:52:46;;;;;;;2.00;1.90;;;16.60;99.90;;;;;;4976555;28;20672;-72
2023/07/25 05:55:13;;;;;;;3.53;1.93;;;16.70;99.90;;;;;;4970345;28;21205;-71
2023/07/25 05:57:40;;;;;;;2.27;2.07;;;16.70;99.90;;;;;;4974535;28;20626;-73
2023/07/25 06:00:09;;;;;;;2.13;1.93;;;16.70;99.90;;;;;;4974117;28;20657;-71
2023/07/25 06:02:36;;;;;;;6.77;2.10;;;16.60;99.90;;;;;;4977262;28;20729;-72
2023/07/25 06:05:03;;;;;;;3.00;2.67;;;16.80;99.90;;;;;;4977810;28;20709;-72
2023/07/25 06:07:30;;;;;;;2.60;2.40;;;16.90;99.90;;;;;;4977015;28;20665;-72
2023/07/25 06:09:56;;;;;;;2.63;2.13;;;16.70;99.90;;;;;;4978901;28;20636;-73
2023/07/25 06:12:23;;;;;;;3.10;2.27;;;16.40;99.90;;;;;;4974927;28;20668;-72
2023/07/25 06:14:51;;;;;;;3.20;2.10;;;16.60;99.90;;;;;;4977671;28;20630;-72
2023/07/25 06:17:19;;;;;;;2.87;2.40;;;16.70;99.90;;;;;;4976404;28;20654;-72
2023/07/25 06:19:46;;;;;;;2.20;1.97;;;16.80;99.90;;;;;;4978119;28;20991;-73
2023/07/25 06:22:14;;;;;;;3.63;2.43;;;16.80;99.90;;;;;;4980361;28;21224;-73
2023/07/25 06:24:41;;;;;;;2.03;1.70;;;17.00;99.90;;;;;;4979204;28;21261;-72
2023/07/25 06:27:08;;;;;;;2.83;2.50;;;16.90;99.90;;;;;;4982543;28;20679;-72
2023/07/25 06:29:35;;;;;;;3.50;2.40;;;17.00;99.90;;;;;;4981253;28;20744;-72
2023/07/25 06:32:02;;;;;;;2.27;2.07;;;17.00;99.90;;;;;;4977380;28;20674;-71
2023/07/25 06:34:30;;;;;;;3.40;2.67;;;17.00;99.90;;;;;;4975191;28;20990;-71
2023/07/25 06:36:58;;;;;;;2.80;2.60;;;17.00;99.90;;;;;;4974467;28;20877;-71
2023/07/25 06:39:24;;;;;;;2.40;2.20;;;17.00;99.90;;;;;;4977579;28;20634;-72
2023/07/25 06:41:51;;;;;;;3.23;2.73;;;17.00;99.90;;;;;;4978989;28;20657;-72
2023/07/25 06:44:19;;;;;;;3.47;2.67;;;17.00;99.90;;;;;;4975564;28;20628;-72
2023/07/25 06:46:46;;;;;;;5.40;2.40;;;17.00;99.90;;;;;;4976539;28;20768;-72
2023/07/25 06:49:12;;;;;;;3.77;2.93;;;16.90;99.90;;;;;;4975673;28;20638;-71
2023/07/25 06:51:41;;;;;;;3.37;3.00;;;16.60;99.90;;;;;;4976183;28;20666;-72
2023/07/25 06:54:07;;;;;;;2.80;2.60;;;16.70;99.90;;;;;;4975615;28;21000;-73
2023/07/25 06:56:34;;;;;;;4.33;3.93;;;16.90;99.90;;;;;;4977008;28;20708;-72
2023/07/25 06:59:02;;;;;;;4.37;2.77;;;16.80;99.90;;;;;;4975435;28;20633;-73
2023/07/25 07:01:31;;;;;;;3.60;2.73;;;16.80;99.90;;;;;;4978477;28;21103;-73
2023/07/25 07:04:01;;;;;;;3.00;2.30;;;16.70;99.90;;;;;;4979079;28;20732;-73
2023/07/25 07:06:30;;;;;;;3.07;2.30;;;16.70;99.90;;;;;;4976740;28;20657;-73
2023/07/25 07:08:59;;;;;;;3.07;2.83;;;16.70;99.90;;;;;;4974444;28;21068;-72
2023/07/25 07:11:26;;;;;;;2.80;2.23;;;16.70;99.90;;;;;;4974726;28;21119;-73
2023/07/25 07:13:52;;;;;;;3.53;2.40;;;16.70;99.90;;;;;;4978202;28;20629;-71
2023/07/25 07:16:19;;;;;;;2.20;2.00;;;16.70;99.90;;;;;;4976639;28;20703;-71
2023/07/25 07:18:47;;;;;;;2.57;2.37;;;16.70;99.90;;;;;;4979276;28;21096;-71
2023/07/25 07:21:29;;;;;;;2.90;2.50;;;16.70;99.90;;;;;;4986189;28;20644;-72
2023/07/25 07:27:07;;;;;;;6.20;2.70;;;16.90;99.90;;;;;;4978602;28;21118;-72
2023/07/25 07:29:55;;;;;;;3.43;3.13;;;16.90;99.90;;;;;;4980303;28;21215;-72
2023/07/25 07:32:29;;;;;;;3.00;2.47;;;16.80;99.90;;;;;;4978942;28;20728;-76
2023/07/25 07:34:56;;;;;;;2.47;2.23;;;16.90;99.90;;;;;;4977021;28;20622;-71
2023/07/25 07:37:23;;;;;;;2.33;2.13;;;17.00;99.90;;;;;;4976820;28;21458;-71
2023/07/25 07:39:54;;;;;;;2.40;2.20;;;17.00;99.90;;;;;;4984688;28;21059;-71
2023/07/25 07:42:20;;;;;;;2.40;2.20;;;17.10;99.90;;;;;;4977057;28;21139;-71
2023/07/25 07:44:54;;;;;;;1.73;1.63;;;17.10;99.90;;;;;;4978524;28;20636;-71
2023/07/25 07:47:22;;;;;;;2.90;1.87;;;17.40;99.90;;;;;;4977799;28;20681;-71
2023/07/25 07:49:49;;;;;;;4.30;2.03;;;17.70;99.90;;;;;;4978743;28;21068;-71
2023/07/25 07:52:16;;;;;;;2.80;2.10;;;18.00;99.90;;;;;;4977813;28;20676;-71
2023/07/25 07:54:43;;;;;;;2.07;1.90;;;18.10;99.90;;;;;;4979774;28;20700;-71
2023/07/25 07:57:11;;;;;;;2.90;2.23;;;18.20;99.90;;;;;;4977793;28;20665;-71
2023/07/25 07:59:38;;;;;;;2.17;1.97;;;18.00;99.90;;;;;;4974236;28;20634;-71
2023/07/25 08:02:05;;;;;;;2.80;1.67;;;18.10;99.90;;;;;;4980515;28;20657;-71
2023/07/25 08:04:32;;;;;;;1.60;1.50;;;18.30;99.90;;;;;;4977527;28;20632;-71
2023/07/25 08:06:59;;;;;;;1.53;1.40;;;18.30;99.90;;;;;;4985370;28;20655;-71
2023/07/25 08:09:26;;;;;;;1.70;1.60;;;18.40;99.90;;;;;;4977044;28;20728;-71
2023/07/25 08:11:53;;;;;;;1.37;1.30;;;18.40;99.90;;;;;;4971206;28;20658;-71
2023/07/25 08:14:21;;;;;;;1.80;1.70;;;18.40;99.90;;;;;;4983335;28;20744;-71
2023/07/25 08:16:48;;;;;;;2.60;2.40;;;18.30;99.90;;;;;;4976549;28;20654;-71
2023/07/25 08:19:14;;;;;;;5.70;2.37;;;18.40;99.90;;;;;;4975982;28;20633;-71
2023/07/25 08:21:41;;;;;;;1.83;1.73;;;18.50;99.90;;;;;;4978940;28;20858;-71
2023/07/25 08:24:08;;;;;;;3.80;1.97;;;18.50;99.90;;;;;;4979466;28;20617;-71
2023/07/25 08:26:35;;;;;;;2.30;2.10;;;18.50;99.90;;;;;;4974845;28;20659;-72
2023/07/25 08:29:01;;;;;;;1.90;1.80;;;18.50;99.90;;;;;;4976918;28;20639;-73
2023/07/25 08:31:30;;;;;;;1.97;1.77;;;18.50;99.90;;;;;;4976594;28;20712;-72
2023/07/25 08:33:57;;;;;;;2.40;2.20;;;18.60;99.90;;;;;;4980921;28;20665;-73
2023/07/25 08:36:23;;;;;;;2.07;1.80;;;18.60;99.90;;;;;;4979334;28;20680;-72
2023/07/25 08:38:50;;;;;;;1.70;1.60;;;18.70;99.90;;;;;;4982341;28;21127;-72
2023/07/25 08:41:20;;;;;;;7.30;2.23;;;18.80;99.90;;;;;;4978634;28;20752;-72
2023/07/25 08:43:49;;;;;;;2.70;1.90;;;18.80;99.90;;;;;;4979445;28;21185;-71
2023/07/25 08:46:20;;;;;;;2.10;1.93;;;18.80;99.90;;;;;;4978442;28;20657;-71
2023/07/25 08:48:49;;;;;;;2.07;1.87;;;18.80;99.90;;;;;;4981408;28;20638;-71
2023/07/25 08:51:21;;;;;;;1.93;1.83;;;18.60;99.90;;;;;;4982447;28;20650;-71
2023/07/25 08:53:53;;;;;;;2.23;1.87;;;19.00;99.90;;;;;;4977514;28;20760;-71
2023/07/25 08:56:22;;;;;;;2.70;2.03;;;19.10;99.90;;;;;;4975639;28;20669;-71
2023/07/25 08:58:50;;;;;;;4.73;2.13;;;19.10;99.90;;;;;;4977340;28;20634;-71
2023/07/25 09:01:17;;;;;;;2.90;2.30;;;19.20;99.90;;;;;;4977020;28;20655;-71
2023/07/25 09:03:45;;;;;;;2.17;1.97;;;19.20;99.90;;;;;;4977306;28;21213;-72
2023/07/25 09:06:14;;;;;;;2.10;1.87;;;19.20;99.90;;;;;;4972723;28;21240;-72
2023/07/25 09:08:41;;;;;;;1.70;1.60;;;19.00;99.90;;;;;;4982041;28;20738;-71
2023/07/25 09:11:10;;;;;;;1.70;1.60;;;18.80;99.90;;;;;;4978298;28;20649;-72
2023/07/25 09:13:37;;;;;;;1.50;1.27;;;18.60;99.90;;;;;;4978088;28;20666;-73
2023/07/25 09:16:05;;;;;;;1.17;1.17;;;18.50;99.90;;;;;;4975199;28;21109;-72
2023/07/25 09:18:31;;;;;;;1.80;1.70;;;18.40;99.90;;;;;;4978304;28;21270;-72
2023/07/25 09:20:59;;;;;;;1.80;1.07;;;18.40;99.90;;;;;;4977019;28;20685;-72
2023/07/25 09:23:27;;;;;;;1.90;1.67;;;18.40;99.90;;;;;;4981929;28;20625;-73
2023/07/25 09:26:05;;;;;;;1.90;1.73;;;18.40;99.90;;;;;;4982965;28;20652;-72
2023/07/25 09:28:32;;;;;;;1.83;1.73;;;18.60;99.90;;;;;;4984714;28;20688;-73
2023/07/25 09:31:02;;;;;;;1.53;1.40;;;18.70;99.90;;;;;;4979148;28;20646;-72
2023/07/25 09:33:29;;;;;;;1.67;1.37;;;18.80;99.90;;;;;;4983095;28;20824;-72
2023/07/25 09:35:56;;;;;;;1.67;1.57;;;18.60;99.90;;;;;;4977100;28;20655;-72
2023/07/25 09:38:23;;;;;;;1.40;1.30;;;18.60;99.90;;;;;;4973539;28;20722;-73
2023/07/25 09:40:51;;;;;;;2.33;1.23;;;18.50;99.90;;;;;;4977302;28;20657;-73
2023/07/25 09:43:25;;;;;;;1.30;1.20;;;18.60;99.90;;;;;;4975345;28;21210;-72
2023/07/25 09:45:52;;;;;;;1.30;1.20;;;19.00;99.90;;;;;;4977337;28;21156;-72
2023/07/25 09:48:19;;;;;;;1.43;1.33;;;19.20;99.90;;;;;;4985311;28;20639;-72
2023/07/25 09:50:46;;;;;;;1.53;1.43;;;19.20;99.90;;;;;;4973727;28;20662;-71
2023/07/25 09:53:14;;;;;;;2.27;1.10;;;19.10;99.90;;;;;;4975958;28;20681;-72
2023/07/25 09:55:42;;;;;;;1.50;1.40;;;19.10;99.90;;;;;;4975598;28;22131;-71
2023/07/25 09:58:10;;;;;;;1.47;1.37;;;19.50;99.90;;;;;;4978361;28;20940;-71
2023/07/25 10:00:37;;;;;;;1.63;1.53;;;19.70;99.90;;;;;;4976926;28;20661;-71
2023/07/25 10:03:04;;;;;;;1.67;1.20;;;20.00;99.90;;;;;;4981138;28;20684;-72
2023/07/25 10:05:31;;;;;;;1.33;1.23;;;20.00;99.90;;;;;;4970171;28;20765;-72
2023/07/25 10:07:58;;;;;;;1.37;1.27;;;19.90;99.90;;;;;;4980178;28;21511;-72
2023/07/25 10:10:26;;;;;;;1.60;1.50;;;19.80;99.90;;;;;;4976938;28;20646;-72
2023/07/25 10:12:54;;;;;;;2.77;1.20;;;20.10;99.90;;;;;;4968734;28;20658;-72
2023/07/25 10:15:22;;;;;;;2.10;1.50;;;20.10;99.90;;;;;;4983821;28;20637;-72
2023/07/25 10:17:49;;;;;;;4.90;1.80;;;20.20;99.90;;;;;;4983389;28;20639;-74
2023/07/25 10:20:23;;;;;;;0.80;0.80;;;20.50;99.90;;;;;;4981073;28;21063;-73
2023/07/25 10:22:50;;;;;;;2.00;1.20;;;20.70;99.90;;;;;;4984512;28;20629;-74
2023/07/25 10:25:22;;;;;;;1.47;1.20;;;20.80;99.90;;;;;;4983237;28;20629;-73
2023/07/25 10:27:55;;;;;;;1.80;1.30;;;20.70;99.90;;;;;;4980989;28;20645;-75
2023/07/25 10:30:25;;;;;;;3.17;1.30;;;20.90;99.90;;;;;;4981369;28;20631;-74
2023/07/25 10:32:54;;;;;;;1.50;1.40;;;21.20;99.90;;;;;;4980763;28;21249;-74
2023/07/25 10:35:42;;;;;;;1.20;1.10;;;21.40;99.90;;;;;;4983885;28;20631;-75
2023/07/25 10:38:10;;;;;;;0.93;0.87;;;21.80;99.50;;;;;;4979044;28;20624;-75
2023/07/25 10:40:53;;;;;;;1.30;1.20;;;21.60;96.50;;;;;;4979760;28;20687;-74
2023/07/25 10:43:21;;;;;;;0.90;0.90;;;21.30;97.30;;;;;;4976667;28;20711;-73
2023/07/25 10:45:54;;;;;;;1.37;1.27;;;20.70;99.30;;;;;;4979248;28;20658;-73
2023/07/25 10:48:32;;;;;;;2.20;1.50;;;20.30;99.90;;;;;;4977678;28;20626;-74
2023/07/25 10:50:59;;;;;;;1.17;1.17;;;20.10;99.90;;;;;;4973421;28;21001;-71
2023/07/25 10:53:26;;;;;;;1.63;1.10;;;19.60;99.90;;;;;;4978134;28;20658;-72
2023/07/25 10:56:13;;;;;;;1.30;1.20;;;19.30;99.90;;;;;;4971342;28;20668;-72
2023/07/25 10:59:00;;;;;;;1.40;1.30;;;19.20;99.90;;;;;;4982398;28;20734;-72
2023/07/25 11:01:43;;;;;;;1.67;1.57;;;19.00;99.90;;;;;;4974622;28;20658;-70
2023/07/25 11:04:24;;;;;;;1.37;1.27;;;18.80;99.90;;;;;;4978790;28;20622;-72
2023/07/25 11:06:52;;;;;;;1.70;1.27;;;18.90;99.90;;;;;;4977500;28;20656;-72
2023/07/25 11:09:20;;;;;;;1.47;1.20;;;18.90;99.90;;;;;;4978629;28;20752;-71
2023/07/25 11:11:48;;;;;;;1.30;1.17;;;19.10;99.90;;;;;;4983009;28;21038;-71
2023/07/25 11:14:21;;;;;;;1.57;1.47;;;19.40;99.90;;;;;;4985123;28;21048;-72
2023/07/25 11:16:54;;;;;;;4.73;1.70;;;20.20;99.90;;;;;;4974869;28;20650;-73
2023/07/25 11:19:30;;;;;;;0.93;0.93;;;20.40;99.90;;;;;;4976392;28;20622;-71
2023/07/25 11:21:56;;;;;;;1.40;1.30;;;20.90;99.90;;;;;;4978217;28;21242;-72
2023/07/25 11:24:24;;;;;;;1.37;1.27;;;21.20;99.90;;;;;;4978718;28;20733;-72
2023/07/25 11:26:50;;;;;;;4.63;1.67;;;21.80;99.90;;;;;;4982206;28;21088;-72
2023/07/25 11:29:18;;;;;;;2.10;0.90;;;21.80;99.90;;;;;;4982097;28;20637;-72
2023/07/25 11:31:46;;;;;;;1.43;0.97;;;22.20;99.80;;;;;;4983407;28;20651;-71
2023/07/25 11:34:16;;;;;;;1.30;1.20;;;22.60;99.90;;;;;;4983142;28;20993;-71
2023/07/25 11:36:44;;;;;;;0.97;0.97;;;22.70;99.90;;;;;;4979432;28;20773;-72
2023/07/25 11:39:11;;;;;;;0.83;0.80;;;22.80;96.40;;;;;;4979496;28;20631;-72
2023/07/25 11:41:39;;;;;;;1.20;1.10;;;23.10;96.10;;;;;;4979467;28;20656;-72
2023/07/25 11:44:09;;;;;;;0.97;0.87;;;23.10;95.10;;;;;;4981876;28;20923;-71
2023/07/25 11:46:37;;;;;;;1.67;1.20;;;23.00;95.30;;;;;;4972912;28;20753;-71
2023/07/25 11:49:04;;;;;;;1.00;1.00;;;23.10;94.50;;;;;;4978951;28;21046;-72
2023/07/25 11:51:33;;;;;;;1.17;1.07;;;23.50;94.50;;;;;;4975898;28;20745;-72
2023/07/25 11:54:00;;;;;;;1.07;1.00;;;23.70;92.20;;;;;;4980421;28;20678;-72
2023/07/25 11:56:27;;;;;;;1.10;1.03;;;24.10;93.70;;;;;;4978643;28;20663;-72
2023/07/25 11:58:54;;;;;;;1.20;1.10;;;24.10;91.60;;;;;;4978531;28;20639;-71
2023/07/25 12:01:28;;;;;;;0.70;0.70;;;23.70;90.80;;;;;;4979144;28;20722;-72
2023/07/25 12:03:55;;;;;;;0.97;0.97;;;24.40;90.70;;;;;;4987119;28;20643;-72
2023/07/25 12:06:28;;;;;;;0.80;0.70;;;24.10;86.50;;;;;;4975231;28;20991;-72
2023/07/25 12:08:56;;;;;;;1.07;1.07;;;24.00;90.90;;;;;;4976256;28;20641;-72
2023/07/25 12:11:23;;;;;;;0.80;0.67;;;23.90;91.20;;;;;;4979807;28;20656;-72
2023/07/25 12:13:51;;;;;;;1.17;1.00;;;23.30;89.20;;;;;;4976449;28;20667;-72
2023/07/25 12:16:29;;;;;;;0.83;0.50;;;22.50;90.20;;;;;;4979027;28;20650;-72
2023/07/25 12:18:58;;;;;;;1.07;0.80;;;21.10;85.90;;;;;;4981288;28;20639;-72
2023/07/25 12:21:28;;;;;;;0.53;0.53;;;20.20;88.50;;;;;;4976067;28;20652;-72
2023/07/25 12:23:58;;;;;;;0.53;0.53;;;19.80;90.60;;;;;;4982568;28;20628;-72
2023/07/25 12:26:25;;;;;;;1.60;0.77;;;19.70;90.90;;;;;;4974004;28;20762;-72
2023/07/25 12:28:53;;;;;;;0.60;0.60;;;20.40;97.70;;;;;;4983778;28;20655;-71
2023/07/25 12:31:20;;;;;;;0.50;0.50;;;20.20;95.80;;;;;;4986597;28;21361;-71
2023/07/25 12:33:49;;;;;;;0.70;0.70;;;20.40;96.50;;;;;;4981794;28;20657;-71
2023/07/25 12:36:20;;;;;;;0.90;0.80;;;20.30;97.30;;;;;;4974594;28;20681;-72
2023/07/25 12:38:46;;;;;;;0.70;0.70;;;20.60;96.50;;;;;;4985801;28;21861;-72
2023/07/25 12:41:15;;;;;;;0.93;0.80;;;21.00;96.80;;;;;;4982568;28;20768;-71
2023/07/25 12:43:47;;;;;;;1.27;0.73;;;22.30;96.90;;;;;;4980585;28;21193;-72
2023/07/25 12:46:13;;;;;;;1.57;0.87;;;23.30;94.20;;;;;;4984443;28;20888;-72
2023/07/25 12:48:40;;;;;;;0.60;0.60;;;23.90;93.80;;;;;;4980406;28;20644;-72
2023/07/25 12:51:07;;;;;;;0.70;0.60;;;25.10;91.00;;;;;;4978924;28;21589;-72
2023/07/25 12:53:34;;;;;;;0.80;0.60;;;25.80;90.30;;;;;;4979468;28;21098;-72
2023/07/25 12:56:00;;;;;;;0.53;0.53;;;25.20;87.60;;;;;;4978135;28;20660;-72